Time;durP1;ratioP1;P1;durP2;ratioP2;P2;SDS_P1;SDS_P2;PMS_P1;PMS_P2;Temp;Humidity;BMP_temperature;BMP_pressure;BME280_temperature;BME280_humidity;BME280_pressure;Samples;Min_cycle;Max_cycle;Signal;HPM_P1;HPM_P2
2022/04/20 00:01:13;;;;;;;6.38;4.38;;;8.80;99.10;;;;;;4963189;28;20035;-79
2022/04/20 00:03:38;;;;;;;6.47;4.30;;;8.90;99.30;;;;;;4961606;28;20037;-79
2022/04/20 00:06:07;;;;;;;7.20;4.60;;;8.80;99.50;;;;;;4946778;28;20035;-77
2022/04/20 00:08:33;;;;;;;7.25;4.60;;;8.80;99.70;;;;;;4956729;28;20071;-73
2022/04/20 00:11:02;;;;;;;8.80;4.72;;;8.70;99.90;;;;;;4960299;28;20062;-75
2022/04/20 00:13:28;;;;;;;7.63;4.78;;;8.70;99.90;;;;;;4961931;28;20031;-75
2022/04/20 00:15:54;;;;;;;8.27;4.78;;;8.70;99.80;;;;;;4960233;28;20078;-74
2022/04/20 00:18:20;;;;;;;8.50;4.40;;;8.80;99.90;;;;;;4945079;28;20035;-75
2022/04/20 00:20:45;;;;;;;7.30;4.13;;;8.80;99.90;;;;;;4957321;28;20027;-74
2022/04/20 00:23:11;;;;;;;6.63;4.75;;;8.70;99.90;;;;;;4955355;28;20036;-77
2022/04/20 00:25:38;;;;;;;7.47;4.30;;;8.70;99.90;;;;;;4959200;28;20125;-80
2022/04/20 00:28:03;;;;;;;9.00;4.85;;;8.70;99.90;;;;;;4956483;28;20075;-76
2022/04/20 00:30:29;;;;;;;6.53;4.50;;;8.70;99.90;;;;;;4961125;28;20031;-75
2022/04/20 00:32:55;;;;;;;9.63;4.65;;;8.70;99.90;;;;;;4962066;28;20087;-80
2022/04/20 00:35:21;;;;;;;6.68;4.80;;;8.70;99.90;;;;;;4945724;28;20027;-80
2022/04/20 00:37:49;;;;;;;8.13;4.85;;;8.60;99.90;;;;;;4961161;28;20023;-83
2022/04/20 00:40:15;;;;;;;7.40;4.35;;;8.60;99.90;;;;;;4943382;28;20524;-80
2022/04/20 00:42:42;;;;;;;9.95;4.95;;;8.60;99.90;;;;;;4962831;28;20034;-75
2022/04/20 00:45:09;;;;;;;9.45;5.20;;;8.50;99.90;;;;;;4961161;28;20043;-75
2022/04/20 00:47:44;;;;;;;8.82;4.82;;;8.60;99.90;;;;;;4941773;28;20031;-81
2022/04/20 00:50:13;;;;;;;8.57;4.85;;;8.50;99.90;;;;;;4957960;28;20058;-78
2022/04/20 00:52:39;;;;;;;9.38;4.80;;;8.50;99.90;;;;;;4960126;28;20035;-75
2022/04/20 00:55:06;;;;;;;7.47;4.75;;;8.50;99.90;;;;;;4959751;28;20062;-76
2022/04/20 00:57:32;;;;;;;8.75;5.60;;;8.50;99.90;;;;;;4955149;28;20071;-75
2022/04/20 01:00:01;;;;;;;8.43;5.40;;;8.50;99.90;;;;;;4939416;28;20103;-75
2022/04/20 01:02:27;;;;;;;8.68;5.60;;;8.50;99.90;;;;;;4959699;28;20100;-81
2022/04/20 01:04:53;;;;;;;7.85;5.85;;;8.50;99.90;;;;;;4961337;28;20094;-78
2022/04/20 01:07:19;;;;;;;12.57;5.78;;;8.40;99.90;;;;;;4961063;28;20035;-78
2022/04/20 01:09:45;;;;;;;9.32;5.93;;;8.50;99.90;;;;;;4960500;28;20031;-79
2022/04/20 01:12:13;;;;;;;12.05;5.72;;;8.50;99.90;;;;;;4955216;28;20113;-78
2022/04/20 01:14:39;;;;;;;10.60;5.60;;;8.40;99.90;;;;;;4961762;28;20040;-78
2022/04/20 01:17:05;;;;;;;8.10;5.03;;;8.30;99.90;;;;;;4943582;28;20026;-77
2022/04/20 01:19:38;;;;;;;11.80;5.70;;;8.30;99.90;;;;;;4961987;28;20027;-78
2022/04/20 01:22:05;;;;;;;9.52;5.50;;;8.30;99.90;;;;;;4954379;28;20031;-79
2022/04/20 01:24:32;;;;;;;8.02;5.03;;;8.30;99.90;;;;;;4957148;28;20110;-77
2022/04/20 01:26:58;;;;;;;9.90;5.50;;;8.30;99.90;;;;;;4955792;28;20031;-78
2022/04/20 01:29:26;;;;;;;13.57;5.40;;;8.20;99.90;;;;;;4956643;28;20039;-79
2022/04/20 01:31:58;;;;;;;8.00;5.18;;;8.20;99.90;;;;;;4958014;28;20455;-78
2022/04/20 01:34:23;;;;;;;9.93;5.40;;;8.20;99.90;;;;;;4957667;28;20139;-79
2022/04/20 01:36:50;;;;;;;9.77;5.00;;;8.20;99.90;;;;;;4974081;28;20488;-83
2022/04/20 01:39:15;;;;;;;7.28;4.80;;;8.20;99.90;;;;;;4958670;28;20027;-74
2022/04/20 01:41:42;;;;;;;7.72;4.72;;;8.10;99.90;;;;;;4955794;28;20384;-81
2022/04/20 01:44:08;;;;;;;8.55;4.35;;;8.10;99.90;;;;;;4941604;28;20121;-75
2022/04/20 01:46:34;;;;;;;8.10;4.70;;;8.10;99.90;;;;;;4956170;28;20030;-74
2022/04/20 01:49:01;;;;;;;8.85;4.90;;;8.20;99.90;;;;;;4956853;28;20136;-75
2022/04/20 01:54:12;;;;;;;8.82;5.35;;;8.10;99.90;;;;;;4952756;28;20023;-75
2022/04/20 01:56:37;;;;;;;7.40;4.47;;;8.00;99.90;;;;;;4952199;28;20035;-78
2022/04/20 01:59:03;;;;;;;8.55;5.18;;;8.00;99.90;;;;;;4957797;28;20042;-79
2022/04/20 02:04:15;;;;;;;6.80;4.40;;;8.00;99.90;;;;;;4956758;28;20051;-78
2022/04/20 02:06:41;;;;;;;7.25;4.22;;;8.00;99.90;;;;;;4956734;28;20026;-79
2022/04/20 02:09:07;;;;;;;8.25;4.75;;;8.00;99.90;;;;;;4957352;28;20073;-79
2022/04/20 02:11:33;;;;;;;9.55;5.00;;;7.90;99.90;;;;;;4943477;28;20086;-75
2022/04/20 02:13:59;;;;;;;9.43;5.55;;;7.90;99.90;;;;;;4973215;28;20519;-74
2022/04/20 02:16:25;;;;;;;8.13;4.28;;;7.90;99.90;;;;;;4958738;28;20114;-81
2022/04/20 02:18:51;;;;;;;11.20;5.50;;;7.90;99.90;;;;;;4955657;28;20027;-75
2022/04/20 02:21:17;;;;;;;6.93;5.18;;;7.90;99.90;;;;;;4963589;28;20034;-75
2022/04/20 02:23:43;;;;;;;9.13;5.30;;;7.80;99.90;;;;;;4970424;28;20456;-74
2022/04/20 02:26:08;;;;;;;7.10;4.93;;;7.80;99.90;;;;;;4959411;28;20038;-74
2022/04/20 02:28:34;;;;;;;6.65;4.53;;;7.80;99.90;;;;;;4954601;28;20109;-74
2022/04/20 02:31:00;;;;;;;11.90;5.22;;;7.80;99.90;;;;;;4956140;28;20051;-78
2022/04/20 02:33:25;;;;;;;10.15;5.28;;;7.70;99.90;;;;;;4956629;28;20031;-74
2022/04/20 02:35:52;;;;;;;10.68;5.60;;;7.70;99.90;;;;;;4972035;28;20426;-75
2022/04/20 02:38:19;;;;;;;7.78;4.90;;;7.70;99.90;;;;;;4955534;28;20038;-74
2022/04/20 02:40:45;;;;;;;10.73;4.57;;;7.60;99.90;;;;;;4958122;28;20122;-80
2022/04/20 02:43:11;;;;;;;6.47;4.43;;;7.60;99.90;;;;;;4957499;28;20063;-78
2022/04/20 02:45:37;;;;;;;12.18;5.03;;;7.60;99.90;;;;;;4959426;28;20059;-75
2022/04/20 02:48:03;;;;;;;7.70;4.68;;;7.50;99.90;;;;;;4943744;28;20257;-75
2022/04/20 02:50:30;;;;;;;10.07;5.10;;;7.60;99.90;;;;;;4960904;28;20034;-81
2022/04/20 02:52:56;;;;;;;7.70;4.78;;;7.50;99.90;;;;;;4958446;28;20063;-78
2022/04/20 02:55:22;;;;;;;8.95;4.78;;;7.50;99.90;;;;;;4958276;28;20034;-78
2022/04/20 02:57:48;;;;;;;10.68;5.13;;;7.50;99.90;;;;;;4955861;28;20023;-79
2022/04/20 03:00:14;;;;;;;10.05;5.30;;;7.40;99.90;;;;;;4958137;28;20027;-78
2022/04/20 03:02:40;;;;;;;8.80;4.78;;;7.40;99.90;;;;;;4959262;28;20027;-75
2022/04/20 03:05:06;;;;;;;5.95;4.78;;;7.40;99.90;;;;;;4956562;28;20034;-75
2022/04/20 03:07:32;;;;;;;8.15;5.10;;;7.40;99.90;;;;;;4954670;28;20118;-74
2022/04/20 03:09:58;;;;;;;6.63;4.40;;;7.30;99.90;;;;;;4953254;28;20126;-79
2022/04/20 03:12:23;;;;;;;9.48;4.68;;;7.30;99.90;;;;;;4961686;28;20091;-74
2022/04/20 03:14:51;;;;;;;6.53;4.38;;;7.30;99.90;;;;;;4963964;28;20042;-77
2022/04/20 03:17:17;;;;;;;9.25;4.78;;;7.30;99.90;;;;;;4959956;28;20027;-74
2022/04/20 03:19:43;;;;;;;7.25;4.72;;;7.30;99.90;;;;;;4961553;28;20030;-77
2022/04/20 03:22:09;;;;;;;7.97;4.30;;;7.40;99.90;;;;;;4956089;28;20042;-77
2022/04/20 03:24:35;;;;;;;5.88;4.30;;;7.30;99.90;;;;;;4959869;28;20086;-81
2022/04/20 03:27:01;;;;;;;6.20;4.20;;;7.30;99.90;;;;;;4955890;28;20035;-78
2022/04/20 03:29:26;;;;;;;9.00;5.10;;;7.30;99.90;;;;;;4938855;28;20026;-74
2022/04/20 03:31:54;;;;;;;7.55;5.20;;;7.40;99.90;;;;;;4970899;28;20035;-74
2022/04/20 03:34:20;;;;;;;8.10;4.88;;;7.40;99.90;;;;;;4959723;28;20147;-76
2022/04/20 03:36:46;;;;;;;9.48;3.97;;;7.40;99.90;;;;;;4958602;28;20395;-78
2022/04/20 03:39:12;;;;;;;8.13;4.30;;;7.30;99.90;;;;;;4961210;28;20026;-78
2022/04/20 03:41:37;;;;;;;7.30;4.50;;;7.30;99.90;;;;;;4960184;28;20040;-78
2022/04/20 03:44:06;;;;;;;7.70;4.28;;;7.30;99.90;;;;;;4957310;28;20187;-78
2022/04/20 03:46:32;;;;;;;9.10;4.78;;;7.20;99.90;;;;;;4962848;28;20552;-74
2022/04/20 03:48:57;;;;;;;7.22;4.47;;;7.10;99.90;;;;;;4960288;28;20174;-74
2022/04/20 03:51:23;;;;;;;7.80;4.82;;;7.10;99.90;;;;;;4960631;28;20031;-77
2022/04/20 03:53:48;;;;;;;10.20;4.55;;;7.10;99.90;;;;;;4943893;28;20108;-75
2022/04/20 03:56:14;;;;;;;6.05;4.72;;;7.10;99.90;;;;;;4957380;28;20031;-79
2022/04/20 03:58:40;;;;;;;9.18;5.20;;;7.00;99.90;;;;;;4959459;28;20479;-78
2022/04/20 04:01:05;;;;;;;6.82;4.72;;;7.00;99.90;;;;;;4961851;28;20106;-78
2022/04/20 04:03:31;;;;;;;7.43;4.03;;;7.00;99.90;;;;;;4978183;28;20105;-80
2022/04/20 04:05:57;;;;;;;7.05;4.45;;;7.00;99.90;;;;;;4957484;28;20133;-76
2022/04/20 04:08:23;;;;;;;9.13;4.72;;;7.00;99.90;;;;;;4941212;28;20444;-80
2022/04/20 04:10:50;;;;;;;7.70;4.32;;;7.10;99.90;;;;;;4944979;28;20038;-78
2022/04/20 04:13:17;;;;;;;8.73;4.75;;;7.00;99.90;;;;;;4943113;28;20023;-78
2022/04/20 04:15:46;;;;;;;7.57;4.20;;;7.00;99.90;;;;;;4955240;28;20027;-81
2022/04/20 04:18:12;;;;;;;9.43;4.47;;;7.00;99.90;;;;;;4975111;28;20023;-79
2022/04/20 04:20:38;;;;;;;7.60;4.22;;;7.00;99.90;;;;;;4959929;28;20034;-79
2022/04/20 04:23:03;;;;;;;10.82;5.35;;;7.10;99.90;;;;;;4962199;28;20063;-80
2022/04/20 04:25:29;;;;;;;8.60;4.60;;;7.10;99.90;;;;;;4959548;28;20066;-78
2022/04/20 04:27:55;;;;;;;6.07;4.40;;;7.10;99.90;;;;;;4960841;28;20031;-78
2022/04/20 04:30:21;;;;;;;6.28;4.32;;;7.10;99.90;;;;;;4958179;28;20031;-74
2022/04/20 04:32:47;;;;;;;9.52;4.43;;;7.10;99.90;;;;;;4957510;28;20115;-74
2022/04/20 04:35:13;;;;;;;7.18;4.00;;;7.20;99.90;;;;;;4958681;28;20027;-74
2022/04/20 04:37:40;;;;;;;8.07;4.32;;;7.10;99.90;;;;;;4953573;28;20061;-76
2022/04/20 04:40:06;;;;;;;6.55;3.75;;;7.20;99.90;;;;;;4957626;28;20031;-74
2022/04/20 04:42:32;;;;;;;7.25;3.72;;;7.30;99.90;;;;;;4955773;28;20063;-74
2022/04/20 04:48:36;;;;;;;9.55;4.00;;;7.40;99.90;;;;;;4957584;28;20438;-75
2022/04/20 04:50:28;;;;;;;6.97;3.80;;;7.50;99.90;;;;;;4958535;28;20383;-74
2022/04/20 04:52:54;;;;;;;10.02;3.83;;;7.50;99.90;;;;;;4957668;28;20057;-75
2022/04/20 04:55:20;;;;;;;9.77;4.18;;;7.50;99.90;;;;;;4955649;28;20047;-75
2022/04/20 04:57:45;;;;;;;6.43;3.65;;;7.50;99.90;;;;;;4955038;28;20042;-75
2022/04/20 05:00:11;;;;;;;5.03;3.70;;;7.60;99.90;;;;;;4953622;28;20029;-76
2022/04/20 05:02:37;;;;;;;4.70;3.20;;;7.60;99.90;;;;;;4951973;28;20439;-75
2022/04/20 05:05:04;;;;;;;9.20;4.38;;;7.60;99.90;;;;;;4954111;28;20035;-74
2022/04/20 05:07:30;;;;;;;7.22;3.60;;;7.70;99.90;;;;;;4934277;28;20058;-74
2022/04/20 05:09:55;;;;;;;6.47;3.90;;;7.70;99.90;;;;;;4958008;28;20408;-78
2022/04/20 05:12:21;;;;;;;8.48;4.28;;;7.80;99.90;;;;;;4960876;28;20119;-77
2022/04/20 05:14:47;;;;;;;7.13;3.88;;;7.80;99.90;;;;;;4942780;29;20039;-79
2022/04/20 05:17:13;;;;;;;6.55;3.58;;;7.90;99.90;;;;;;4960102;28;20061;-79
2022/04/20 05:19:39;;;;;;;8.35;3.85;;;7.90;99.90;;;;;;4959891;28;20039;-79
2022/04/20 05:22:04;;;;;;;6.85;3.67;;;8.00;99.90;;;;;;4960772;28;20050;-79
2022/04/20 05:24:35;;;;;;;6.22;3.40;;;8.00;99.90;;;;;;4957241;28;20037;-82
2022/04/20 05:27:04;;;;;;;10.55;3.97;;;8.00;99.90;;;;;;4940889;28;20082;-79
2022/04/20 05:29:29;;;;;;;5.88;3.55;;;8.10;99.90;;;;;;4954902;28;20034;-80
2022/04/20 05:31:56;;;;;;;6.60;3.92;;;8.20;99.90;;;;;;4954405;28;20035;-80
2022/04/20 05:34:23;;;;;;;5.93;3.45;;;8.30;99.90;;;;;;4938913;28;20050;-77
2022/04/20 05:42:19;;;;;;;5.50;3.47;;;8.50;99.90;;;;;;4958879;28;20023;-78
2022/04/20 05:44:48;;;;;;;5.55;3.30;;;8.60;99.90;;;;;;4943191;28;20089;-78
2022/04/20 05:47:13;;;;;;;6.07;3.13;;;8.70;99.90;;;;;;4963404;28;20023;-78
2022/04/20 05:49:39;;;;;;;5.93;3.40;;;8.80;99.70;;;;;;4936931;28;20094;-79
2022/04/20 05:52:06;;;;;;;6.22;3.00;;;8.90;99.10;;;;;;4956430;28;20443;-79
2022/04/20 05:54:32;;;;;;;5.65;3.08;;;8.90;98.90;;;;;;4938776;28;20079;-80
2022/04/20 05:56:57;;;;;;;5.55;3.20;;;8.90;98.50;;;;;;4956491;28;20027;-78
2022/04/20 05:59:23;;;;;;;5.95;3.63;;;8.90;98.60;;;;;;4954495;28;20034;-79
2022/04/20 06:01:49;;;;;;;6.85;3.17;;;8.90;98.60;;;;;;4951717;28;20487;-80
2022/04/20 06:04:15;;;;;;;5.47;3.00;;;8.90;98.60;;;;;;4954068;28;20031;-77
2022/04/20 06:06:40;;;;;;;6.25;3.30;;;8.90;98.60;;;;;;4951477;28;20034;-75
2022/04/20 06:09:06;;;;;;;6.78;2.95;;;9.00;98.60;;;;;;4952946;28;20042;-79
2022/04/20 06:11:32;;;;;;;6.50;3.38;;;9.00;98.60;;;;;;4956650;28;20434;-75
2022/04/20 06:13:57;;;;;;;7.53;3.25;;;9.10;98.70;;;;;;4954682;28;20031;-76
2022/04/20 06:16:23;;;;;;;4.97;2.90;;;9.20;99.20;;;;;;4954335;28;20515;-79
2022/04/20 06:18:49;;;;;;;6.57;3.75;;;9.30;98.50;;;;;;4954246;28;20035;-79
2022/04/20 06:21:18;;;;;;;7.55;3.90;;;9.40;98.10;;;;;;4954802;28;20081;-76
2022/04/20 06:23:44;;;;;;;7.15;3.35;;;9.40;97.90;;;;;;4952594;28;20047;-73
2022/04/20 06:26:11;;;;;;;6.47;3.15;;;9.40;97.80;;;;;;4953650;28;20121;-75
2022/04/20 06:28:37;;;;;;;6.85;3.40;;;9.40;97.70;;;;;;4948188;28;20920;-75
2022/04/20 06:31:04;;;;;;;5.30;3.20;;;9.40;97.20;;;;;;4956239;28;20027;-76
2022/04/20 06:33:31;;;;;;;6.10;3.80;;;9.40;97.10;;;;;;4954696;28;20047;-80
2022/04/20 06:36:00;;;;;;;5.28;3.40;;;9.40;97.20;;;;;;4956579;28;20066;-76
2022/04/20 06:38:26;;;;;;;8.93;3.30;;;9.40;97.10;;;;;;4960318;28;20034;-79
2022/04/20 06:40:53;;;;;;;7.32;3.35;;;9.50;97.00;;;;;;4954290;28;20507;-79
2022/04/20 06:43:20;;;;;;;6.50;3.08;;;9.50;96.90;;;;;;4954276;28;20026;-75
2022/04/20 06:45:46;;;;;;;8.00;3.53;;;9.50;96.60;;;;;;4952653;28;20436;-76
2022/04/20 06:48:11;;;;;;;7.00;3.63;;;9.50;96.40;;;;;;4940424;28;20065;-75
2022/04/20 06:50:40;;;;;;;6.05;3.50;;;9.60;96.20;;;;;;4954846;28;20055;-76
2022/04/20 06:58:42;;;;;;;5.63;3.15;;;9.60;95.70;;;;;;4957435;28;20031;-76
2022/04/20 07:01:08;;;;;;;4.80;2.60;;;9.70;95.70;;;;;;4958496;28;20037;-75
2022/04/20 07:03:36;;;;;;;6.72;2.95;;;9.70;95.60;;;;;;4949514;28;20123;-75
2022/04/20 07:06:02;;;;;;;4.03;2.72;;;9.80;95.50;;;;;;4939157;28;20039;-76
2022/04/20 07:08:31;;;;;;;4.90;3.30;;;9.90;95.50;;;;;;4958610;28;20024;-80
2022/04/20 07:11:00;;;;;;;4.72;2.85;;;10.00;95.20;;;;;;4977900;28;20034;-80
2022/04/20 07:13:26;;;;;;;6.60;3.47;;;10.00;94.90;;;;;;4965055;28;20038;-80
2022/04/20 07:15:53;;;;;;;5.00;2.95;;;10.00;94.90;;;;;;4978294;28;20045;-80
2022/04/20 07:18:21;;;;;;;5.35;3.30;;;10.10;94.50;;;;;;4960069;28;20082;-80
2022/04/20 07:20:48;;;;;;;5.40;2.67;;;10.10;94.20;;;;;;4979252;28;20028;-79
2022/04/20 07:23:15;;;;;;;7.00;3.72;;;10.10;94.10;;;;;;4963669;28;20035;-78
2022/04/20 07:25:43;;;;;;;5.55;3.22;;;10.20;93.90;;;;;;4959089;28;20142;-78
2022/04/20 07:28:10;;;;;;;4.70;2.67;;;10.30;93.30;;;;;;4956725;28;20141;-77
2022/04/20 07:30:37;;;;;;;6.30;2.70;;;10.40;92.70;;;;;;4945256;28;20423;-79
2022/04/20 07:33:04;;;;;;;4.15;2.40;;;10.40;91.70;;;;;;4958087;28;20035;-79
2022/04/20 07:35:30;;;;;;;4.50;2.60;;;10.40;91.60;;;;;;4962672;28;20106;-79
2022/04/20 07:37:56;;;;;;;4.32;2.75;;;10.40;91.30;;;;;;4959819;28;20506;-78
2022/04/20 07:40:23;;;;;;;4.72;2.50;;;10.50;90.70;;;;;;4959100;28;20062;-79
2022/04/20 07:42:54;;;;;;;3.50;2.10;;;10.40;90.30;;;;;;4961999;28;20024;-79
2022/04/20 07:45:25;;;;;;;4.93;2.55;;;10.50;89.70;;;;;;4945160;28;20058;-79
2022/04/20 07:47:53;;;;;;;4.00;2.30;;;10.50;89.60;;;;;;4959553;28;20118;-79
2022/04/20 07:50:19;;;;;;;4.55;2.13;;;10.60;87.10;;;;;;4961293;28;20026;-79
2022/04/20 07:52:54;;;;;;;4.20;2.03;;;10.70;84.90;;;;;;4956073;28;20510;-78
2022/04/20 07:55:22;;;;;;;6.63;2.25;;;10.80;84.20;;;;;;4957436;28;20027;-79
2022/04/20 07:57:49;;;;;;;3.60;2.30;;;10.80;84.30;;;;;;4957270;28;20027;-78
2022/04/20 08:00:16;;;;;;;3.58;2.03;;;10.90;82.70;;;;;;4956926;28;20026;-80
2022/04/20 08:02:45;;;;;;;4.53;2.47;;;10.90;80.60;;;;;;4959226;28;20031;-80
2022/04/20 08:05:13;;;;;;;3.70;2.13;;;10.90;79.20;;;;;;4959701;28;20039;-79
2022/04/20 08:07:40;;;;;;;5.68;2.05;;;10.90;78.90;;;;;;4960112;28;20379;-78
2022/04/20 08:10:08;;;;;;;5.78;1.98;;;10.90;79.20;;;;;;4976838;28;20031;-80
2022/04/20 08:12:44;;;;;;;3.55;1.90;;;11.00;78.90;;;;;;4961476;28;20051;-80
2022/04/20 08:15:10;;;;;;;3.50;2.10;;;11.00;79.10;;;;;;4961400;28;20086;-78
2022/04/20 08:17:37;;;;;;;2.78;1.90;;;11.10;79.60;;;;;;4957279;28;20034;-78
2022/04/20 08:20:11;;;;;;;3.88;1.98;;;11.20;79.50;;;;;;4957948;28;20023;-79
2022/04/20 08:22:42;;;;;;;3.20;1.90;;;11.20;79.80;;;;;;4953743;28;20566;-75
2022/04/20 08:25:09;;;;;;;2.50;1.67;;;11.20;80.20;;;;;;4952083;28;20499;-75
2022/04/20 08:27:34;;;;;;;4.38;1.63;;;11.30;81.30;;;;;;4955516;28;20502;-75
2022/04/20 08:30:00;;;;;;;3.45;2.17;;;11.50;80.60;;;;;;4957153;28;20166;-75
2022/04/20 08:32:26;;;;;;;2.78;1.90;;;11.50;79.90;;;;;;4948171;28;20027;-75
2022/04/20 08:34:52;;;;;;;4.50;2.20;;;11.50;79.20;;;;;;4955884;28;20073;-74
2022/04/20 08:37:18;;;;;;;3.90;1.83;;;11.60;79.10;;;;;;4957894;28;20024;-76
2022/04/20 08:39:43;;;;;;;5.55;2.40;;;11.60;78.60;;;;;;4956720;28;20151;-74
2022/04/20 08:42:12;;;;;;;4.35;1.88;;;11.60;78.30;;;;;;4954595;28;20035;-75
2022/04/20 08:44:44;;;;;;;3.42;2.00;;;11.60;78.60;;;;;;4939973;28;20118;-75
2022/04/20 08:47:14;;;;;;;4.38;1.73;;;11.60;78.00;;;;;;4952773;28;20423;-75
2022/04/20 08:49:45;;;;;;;4.45;1.70;;;11.70;76.20;;;;;;4959524;28;20030;-76
2022/04/20 08:54:58;;;;;;;3.95;1.70;;;11.80;76.90;;;;;;4970242;28;20034;-76
2022/04/20 08:57:29;;;;;;;4.35;2.25;;;11.80;76.60;;;;;;4940473;28;20098;-75
2022/04/20 08:59:57;;;;;;;5.93;2.33;;;11.80;76.50;;;;;;4942982;28;20614;-75
2022/04/20 09:02:24;;;;;;;3.63;1.88;;;11.80;75.80;;;;;;4942389;28;20379;-75
2022/04/20 09:04:51;;;;;;;3.35;1.67;;;11.90;76.80;;;;;;4957567;28;20030;-75
2022/04/20 09:07:18;;;;;;;5.80;2.15;;;11.90;76.50;;;;;;4938455;28;20521;-77
2022/04/20 09:09:56;;;;;;;4.95;1.85;;;12.00;76.20;;;;;;4956041;28;20035;-79
2022/04/20 09:12:23;;;;;;;3.55;2.05;;;12.00;75.80;;;;;;4939025;28;20023;-80
2022/04/20 09:14:51;;;;;;;3.92;2.13;;;12.00;75.00;;;;;;4955947;28;20442;-82
2022/04/20 09:17:22;;;;;;;3.05;1.83;;;12.10;74.90;;;;;;4958154;28;20163;-77
2022/04/20 09:19:51;;;;;;;;;;;12.20;74.60;;;;;;4935033;28;20026;-78
2022/04/20 09:22:30;;;;;;;4.85;2.35;;;12.20;73.80;;;;;;4955508;28;20034;-78
2022/04/20 09:25:04;;;;;;;3.80;2.15;;;12.20;75.00;;;;;;4956564;28;20026;-78
2022/04/20 09:27:31;;;;;;;2.97;2.13;;;12.20;74.70;;;;;;4950797;28;20029;-79
2022/04/20 09:29:58;;;;;;;3.28;1.90;;;12.20;75.10;;;;;;4957849;28;20019;-77
2022/04/20 09:32:43;;;;;;;4.82;2.30;;;12.20;75.20;;;;;;4941137;28;20031;-77
2022/04/20 09:35:12;;;;;;;4.97;2.08;;;12.30;75.50;;;;;;4951321;28;20089;-78
2022/04/20 09:37:40;;;;;;;3.22;2.08;;;12.40;75.70;;;;;;4952713;28;20031;-79
2022/04/20 09:40:11;;;;;;;2.60;1.90;;;12.40;75.30;;;;;;4952170;28;20106;-77
2022/04/20 09:42:57;;;;;;;;;;;12.50;76.00;;;;;;4959198;28;20043;-79
2022/04/20 09:45:23;;;;;;;4.78;2.65;;;12.50;76.50;;;;;;4958368;28;19911;-78
2022/04/20 09:50:34;;;;;;;3.42;2.33;;;12.70;77.50;;;;;;4956733;28;20102;-78
2022/04/20 09:53:06;;;;;;;4.07;2.45;;;12.80;77.60;;;;;;4958761;28;20114;-77
2022/04/20 09:55:36;;;;;;;4.15;2.60;;;12.90;77.00;;;;;;4954898;28;20086;-77
2022/04/20 09:58:17;;;;;;;5.40;2.55;;;12.90;76.40;;;;;;4950792;28;20023;-75
2022/04/20 10:00:52;;;;;;;4.18;2.85;;;13.00;76.70;;;;;;4955346;28;20085;-72
2022/04/20 10:03:26;;;;;;;5.47;2.35;;;13.00;76.60;;;;;;4953627;28;20046;-71
2022/04/20 10:05:53;;;;;;;4.93;2.38;;;13.10;77.20;;;;;;4942560;28;20062;-75
2022/04/20 10:08:20;;;;;;;5.00;2.53;;;13.20;76.30;;;;;;4935006;28;20083;-72
2022/04/20 10:10:52;;;;;;;3.28;2.17;;;13.20;75.70;;;;;;4934091;28;20051;-75
2022/04/20 10:13:18;;;;;;;6.72;1.63;;;13.20;74.60;;;;;;4934263;28;20509;-70
2022/04/20 10:18:31;;;;;;;2.42;1.40;;;13.40;73.50;;;;;;4934882;28;20022;-73
2022/04/20 10:21:00;;;;;;;3.50;1.83;;;13.50;73.70;;;;;;4930740;28;20031;-72
2022/04/20 10:23:29;;;;;;;2.55;1.50;;;13.50;72.10;;;;;;4929467;28;20035;-73
2022/04/20 10:25:56;;;;;;;4.40;1.88;;;13.50;72.60;;;;;;4936222;28;20467;-72
2022/04/20 10:29:01;;;;;;;6.18;2.10;;;13.60;72.60;;;;;;4936062;28;20094;-72
2022/04/20 10:31:45;;;;;;;2.55;1.98;;;13.70;72.40;;;;;;4948672;28;20046;-73
2022/04/20 10:34:21;;;;;;;3.28;2.08;;;13.90;71.60;;;;;;4933479;28;20039;-75
2022/04/20 10:37:02;;;;;;;3.45;1.90;;;14.00;70.50;;;;;;4950422;28;20122;-76
2022/04/20 10:39:34;;;;;;;2.63;1.70;;;14.00;70.90;;;;;;4949163;28;20534;-75
2022/04/20 10:42:12;;;;;;;3.25;1.88;;;13.90;69.00;;;;;;4930241;28;20110;-76
2022/04/20 10:44:58;;;;;;;2.47;1.33;;;13.90;70.00;;;;;;4951899;28;20143;-75
2022/04/20 10:47:35;;;;;;;4.90;2.10;;;13.90;69.80;;;;;;4935691;28;20035;-76
2022/04/20 10:50:18;;;;;;;2.33;1.65;;;14.00;68.90;;;;;;4934611;28;20031;-75
2022/04/20 10:53:11;;;;;;;3.40;1.95;;;14.10;67.60;;;;;;4949422;28;20034;-74
2022/04/20 10:55:37;;;;;;;2.65;1.95;;;14.10;67.80;;;;;;4934357;28;20031;-75
2022/04/20 10:58:04;;;;;;;2.97;1.52;;;14.10;68.00;;;;;;4949445;28;20067;-74
2022/04/20 11:00:35;;;;;;;2.58;1.60;;;14.20;67.40;;;;;;4933815;28;20031;-76
2022/04/20 11:03:06;;;;;;;3.47;1.63;;;14.40;66.70;;;;;;4948162;28;23412;-76
2022/04/20 11:05:48;;;;;;;3.92;1.85;;;14.70;66.00;;;;;;4917480;28;20041;-73
2022/04/20 11:08:14;;;;;;;3.38;1.58;;;15.20;65.40;;;;;;4931417;28;20035;-73
2022/04/20 11:10:42;;;;;;;4.85;1.60;;;16.40;65.30;;;;;;4918683;28;20035;-74
2022/04/20 11:19:03;;;;;;;4.10;1.70;;;21.50;54.40;;;;;;4937661;28;20628;-74
2022/04/20 11:21:30;;;;;;;2.33;1.40;;;23.20;47.60;;;;;;4950613;28;20042;-73
2022/04/20 11:24:03;;;;;;;4.70;1.50;;;24.40;46.70;;;;;;4956399;28;20027;-73
2022/04/20 11:26:30;;;;;;;1.75;1.40;;;25.30;44.90;;;;;;4950516;28;20033;-76
2022/04/20 11:28:58;;;;;;;2.90;1.52;;;25.50;41.70;;;;;;4961573;28;20027;-74
2022/04/20 11:31:25;;;;;;;3.05;1.40;;;24.90;40.30;;;;;;4957262;28;20031;-76
2022/04/20 11:33:54;;;;;;;2.35;1.30;;;24.70;42.60;;;;;;4961369;28;20026;-76
2022/04/20 11:36:20;;;;;;;1.00;0.90;;;25.00;42.30;;;;;;4958743;28;20034;-74
2022/04/20 11:38:48;;;;;;;3.15;1.67;;;25.20;42.70;;;;;;4959383;28;20039;-75
2022/04/20 11:41:16;;;;;;;1.90;1.50;;;25.20;39.10;;;;;;4952618;28;20491;-77
2022/04/20 11:43:42;;;;;;;2.58;1.42;;;24.50;40.00;;;;;;4956714;28;20173;-76
2022/04/20 11:46:08;;;;;;;3.58;1.33;;;24.30;42.00;;;;;;4961155;28;20042;-75
2022/04/20 11:48:38;;;;;;;2.47;1.25;;;24.10;41.50;;;;;;4961426;28;20054;-74
2022/04/20 11:51:08;;;;;;;1.85;1.13;;;23.40;43.40;;;;;;4957367;28;20148;-73
2022/04/20 11:53:35;;;;;;;;;;;22.90;42.20;;;;;;4958467;28;20118;-77
2022/04/20 11:56:02;;;;;;;3.20;1.25;;;22.00;42.60;;;;;;4957737;28;19921;-74
2022/04/20 11:58:28;;;;;;;1.90;1.10;;;22.10;44.80;;;;;;4958381;28;20050;-73
2022/04/20 12:01:05;;;;;;;2.30;1.30;;;21.80;44.50;;;;;;4956584;28;20023;-72
2022/04/20 12:03:32;;;;;;;3.17;1.40;;;21.60;45.20;;;;;;4973843;28;20112;-73
2022/04/20 12:06:00;;;;;;;3.42;1.58;;;21.30;44.90;;;;;;4960274;28;20102;-74
2022/04/20 12:08:25;;;;;;;3.38;1.30;;;20.80;44.10;;;;;;4960297;28;20403;-75
2022/04/20 12:10:52;;;;;;;3.05;1.75;;;20.40;44.40;;;;;;4956558;28;20566;-72
2022/04/20 12:13:29;;;;;;;2.72;1.70;;;19.80;45.70;;;;;;4961472;28;20126;-74
2022/04/20 12:16:12;;;;;;;3.55;1.50;;;19.50;46.50;;;;;;4956644;28;20096;-78
2022/04/20 12:18:45;;;;;;;5.15;1.35;;;19.20;47.20;;;;;;4959361;28;20522;-76
2022/04/20 12:21:43;;;;;;;4.40;1.10;;;19.00;47.70;;;;;;4959381;28;20051;-76
2022/04/20 12:24:27;;;;;;;2.85;1.50;;;18.90;48.10;;;;;;4958282;28;20039;-76
2022/04/20 12:26:54;;;;;;;2.88;1.33;;;18.70;47.90;;;;;;4938289;28;20412;-75
2022/04/20 12:29:22;;;;;;;2.08;1.40;;;18.40;48.40;;;;;;4931874;28;20113;-75
2022/04/20 12:31:50;;;;;;;2.20;1.40;;;18.40;48.80;;;;;;4935209;28;20251;-76
2022/04/20 12:34:19;;;;;;;2.22;1.38;;;18.40;49.10;;;;;;4934798;28;20498;-75
2022/04/20 12:37:13;;;;;;;2.30;1.33;;;18.60;49.10;;;;;;4933335;28;20037;-74
2022/04/20 12:39:42;;;;;;;1.52;1.17;;;18.90;49.80;;;;;;4941526;28;20126;-76
2022/04/20 12:42:12;;;;;;;2.63;1.05;;;20.30;48.50;;;;;;4934918;28;20024;-75
2022/04/20 12:44:51;;;;;;;1.73;1.15;;;21.90;45.90;;;;;;4918477;28;21614;-76
2022/04/20 12:47:17;;;;;;;2.60;1.55;;;23.10;43.10;;;;;;4934088;28;20048;-76
2022/04/20 12:49:53;;;;;;;2.08;1.23;;;24.40;41.20;;;;;;4938380;28;20034;-81
2022/04/20 12:52:22;;;;;;;3.88;1.58;;;25.20;39.20;;;;;;4959654;28;23111;-82
2022/04/20 12:55:08;;;;;;;3.75;1.25;;;26.10;39.30;;;;;;4942698;28;20101;-75
2022/04/20 13:03:12;;;;;;;3.10;1.40;;;27.70;36.20;;;;;;4954951;28;20091;-77
2022/04/20 13:05:43;;;;;;;1.42;1.10;;;27.80;36.10;;;;;;4954372;28;20495;-79
2022/04/20 13:08:12;;;;;;;1.63;1.27;;;28.00;36.00;;;;;;4956434;28;20066;-80
2022/04/20 13:10:41;;;;;;;2.33;1.40;;;28.30;35.10;;;;;;4945492;28;20529;-78
2022/04/20 13:13:07;;;;;;;1.98;1.10;;;28.60;35.30;;;;;;4959582;28;20577;-75
2022/04/20 13:15:34;;;;;;;2.45;1.25;;;29.20;35.10;;;;;;4939056;28;20496;-79
2022/04/20 13:18:01;;;;;;;2.45;1.35;;;29.70;34.80;;;;;;4957853;28;20027;-80
2022/04/20 13:20:30;;;;;;;2.20;1.25;;;29.70;33.90;;;;;;4959418;28;20054;-74
2022/04/20 13:22:56;;;;;;;2.40;1.33;;;30.10;33.40;;;;;;4955731;28;20351;-76
2022/04/20 13:28:07;;;;;;;4.82;1.60;;;30.00;32.80;;;;;;4958793;28;20082;-77
2022/04/20 13:30:39;;;;;;;2.47;1.30;;;29.90;32.60;;;;;;4956985;28;20023;-71
2022/04/20 13:33:10;;;;;;;3.03;1.13;;;29.90;32.80;;;;;;4951051;28;20023;-71
2022/04/20 13:35:37;;;;;;;1.40;1.05;;;29.20;32.40;;;;;;4934912;28;20030;-70
2022/04/20 13:38:03;;;;;;;3.67;1.40;;;28.20;33.20;;;;;;4953369;28;20649;-73
2022/04/20 13:40:30;;;;;;;1.60;1.50;;;28.00;33.30;;;;;;4957289;28;20049;-70